sensor_id;sensor_type;location;lat;lon;timestamp;P1;durP1;ratioP1;P2;durP2;ratioP2
8040;SDS011;4063;48.140;10.250;2022-12-16T00:00:01;31.40;;;19.93;;
8040;SDS011;4063;48.140;10.250;2022-12-16T00:02:27;29.17;;;19.40;;
8040;SDS011;4063;48.140;10.250;2022-12-16T00:04:53;31.23;;;19.80;;
8040;SDS011;4063;48.140;10.250;2022-12-16T00:07:21;31.07;;;19.77;;
8040;SDS011;4063;48.140;10.250;2022-12-16T00:09:47;30.37;;;19.83;;
8040;SDS011;4063;48.140;10.250;2022-12-16T00:12:13;30.87;;;19.33;;
8040;SDS011;4063;48.140;10.250;2022-12-16T00:14:39;27.20;;;18.87;;
8040;SDS011;4063;48.140;10.250;2022-12-16T00:17:05;26.33;;;17.73;;
8040;SDS011;4063;48.140;10.250;2022-12-16T00:19:31;27.33;;;17.70;;
8040;SDS011;4063;48.140;10.250;2022-12-16T00:21:57;26.73;;;17.47;;
8040;SDS011;4063;48.140;10.250;2022-12-16T00:24:23;27.57;;;18.77;;
8040;SDS011;4063;48.140;10.250;2022-12-16T00:26:49;26.83;;;18.57;;
8040;SDS011;4063;48.140;10.250;2022-12-16T00:29:15;25.60;;;16.37;;
8040;SDS011;4063;48.140;10.250;2022-12-16T00:31:41;29.13;;;18.70;;
8040;SDS011;4063;48.140;10.250;2022-12-16T00:34:11;27.87;;;18.63;;
8040;SDS011;4063;48.140;10.250;2022-12-16T00:36:37;25.03;;;18.07;;
8040;SDS011;4063;48.140;10.250;2022-12-16T00:39:03;27.23;;;18.10;;
8040;SDS011;4063;48.140;10.250;2022-12-16T00:41:29;29.20;;;19.07;;
8040;SDS011;4063;48.140;10.250;2022-12-16T00:43:55;28.33;;;17.07;;
8040;SDS011;4063;48.140;10.250;2022-12-16T00:46:21;26.80;;;17.40;;
8040;SDS011;4063;48.140;10.250;2022-12-16T00:48:47;28.83;;;17.93;;
8040;SDS011;4063;48.140;10.250;2022-12-16T00:51:13;24.47;;;17.53;;
8040;SDS011;4063;48.140;10.250;2022-12-16T00:53:39;27.37;;;17.73;;
8040;SDS011;4063;48.140;10.250;2022-12-16T00:56:09;27.10;;;18.00;;
8040;SDS011;4063;48.140;10.250;2022-12-16T00:58:35;25.57;;;17.93;;
8040;SDS011;4063;48.140;10.250;2022-12-16T01:01:01;25.17;;;17.93;;
8040;SDS011;4063;48.140;10.250;2022-12-16T01:03:27;25.33;;;17.10;;
8040;SDS011;4063;48.140;10.250;2022-12-16T01:05:54;26.67;;;18.33;;
8040;SDS011;4063;48.140;10.250;2022-12-16T01:08:20;29.33;;;18.83;;
8040;SDS011;4063;48.140;10.250;2022-12-16T01:10:49;28.90;;;17.57;;
8040;SDS011;4063;48.140;10.250;2022-12-16T01:13:15;28.40;;;18.13;;
8040;SDS011;4063;48.140;10.250;2022-12-16T01:15:42;29.83;;;18.77;;
8040;SDS011;4063;48.140;10.250;2022-12-16T01:18:07;26.47;;;16.97;;
8040;SDS011;4063;48.140;10.250;2022-12-16T01:20:35;25.97;;;18.27;;
8040;SDS011;4063;48.140;10.250;2022-12-16T01:23:04;27.23;;;18.60;;
8040;SDS011;4063;48.140;10.250;2022-12-16T01:25:30;27.27;;;17.93;;
8040;SDS011;4063;48.140;10.250;2022-12-16T01:27:56;29.50;;;20.07;;
8040;SDS011;4063;48.140;10.250;2022-12-16T01:30:22;27.97;;;19.73;;
8040;SDS011;4063;48.140;10.250;2022-12-16T01:32:48;30.63;;;20.43;;
8040;SDS011;4063;48.140;10.250;2022-12-16T01:35:14;32.53;;;22.37;;
8040;SDS011;4063;48.140;10.250;2022-12-16T01:37:41;32.57;;;22.17;;
8040;SDS011;4063;48.140;10.250;2022-12-16T01:40:07;37.63;;;24.10;;
8040;SDS011;4063;48.140;10.250;2022-12-16T01:42:39;32.53;;;22.00;;
8040;SDS011;4063;48.140;10.250;2022-12-16T01:47:51;36.50;;;23.27;;
8040;SDS011;4063;48.140;10.250;2022-12-16T01:50:18;37.53;;;23.63;;
8040;SDS011;4063;48.140;10.250;2022-12-16T01:52:46;40.40;;;23.77;;
8040;SDS011;4063;48.140;10.250;2022-12-16T01:55:23;35.77;;;23.43;;
8040;SDS011;4063;48.140;10.250;2022-12-16T01:57:53;38.13;;;23.67;;
8040;SDS011;4063;48.140;10.250;2022-12-16T02:00:20;37.53;;;24.13;;
8040;SDS011;4063;48.140;10.250;2022-12-16T02:02:46;38.17;;;23.57;;
8040;SDS011;4063;48.140;10.250;2022-12-16T02:05:13;46.27;;;26.10;;
8040;SDS011;4063;48.140;10.250;2022-12-16T02:08:05;42.13;;;26.37;;
8040;SDS011;4063;48.140;10.250;2022-12-16T02:10:36;42.33;;;26.47;;
8040;SDS011;4063;48.140;10.250;2022-12-16T02:13:37;43.50;;;25.13;;
8040;SDS011;4063;48.140;10.250;2022-12-16T02:29:26;42.47;;;27.17;;
8040;SDS011;4063;48.140;10.250;2022-12-16T02:32:20;43.83;;;26.43;;
8040;SDS011;4063;48.140;10.250;2022-12-16T02:40:10;46.87;;;27.80;;
8040;SDS011;4063;48.140;10.250;2022-12-16T02:42:35;42.83;;;26.87;;
8040;SDS011;4063;48.140;10.250;2022-12-16T02:47:34;44.20;;;27.97;;
8040;SDS011;4063;48.140;10.250;2022-12-16T02:50:00;44.47;;;26.87;;
8040;SDS011;4063;48.140;10.250;2022-12-16T02:52:28;47.77;;;28.77;;
8040;SDS011;4063;48.140;10.250;2022-12-16T02:55:00;45.87;;;29.53;;
8040;SDS011;4063;48.140;10.250;2022-12-16T03:00:12;42.73;;;25.83;;
8040;SDS011;4063;48.140;10.250;2022-12-16T03:05:29;43.23;;;26.03;;
8040;SDS011;4063;48.140;10.250;2022-12-16T03:07:56;45.33;;;28.13;;
8040;SDS011;4063;48.140;10.250;2022-12-16T03:10:24;43.43;;;27.87;;
8040;SDS011;4063;48.140;10.250;2022-12-16T03:12:51;45.83;;;26.63;;
8040;SDS011;4063;48.140;10.250;2022-12-16T03:15:19;44.47;;;28.97;;
8040;SDS011;4063;48.140;10.250;2022-12-16T03:17:47;44.17;;;28.10;;
8040;SDS011;4063;48.140;10.250;2022-12-16T03:20:26;44.53;;;28.47;;
8040;SDS011;4063;48.140;10.250;2022-12-16T03:22:53;46.53;;;28.90;;
8040;SDS011;4063;48.140;10.250;2022-12-16T03:25:20;43.80;;;29.73;;
8040;SDS011;4063;48.140;10.250;2022-12-16T03:30:22;41.90;;;29.30;;
8040;SDS011;4063;48.140;10.250;2022-12-16T03:32:50;42.33;;;28.57;;
8040;SDS011;4063;48.140;10.250;2022-12-16T03:35:21;46.57;;;30.10;;
8040;SDS011;4063;48.140;10.250;2022-12-16T03:37:50;48.13;;;30.13;;
8040;SDS011;4063;48.140;10.250;2022-12-16T03:40:17;46.23;;;30.73;;
8040;SDS011;4063;48.140;10.250;2022-12-16T03:42:45;47.00;;;31.03;;
8040;SDS011;4063;48.140;10.250;2022-12-16T03:45:13;46.67;;;30.70;;
8040;SDS011;4063;48.140;10.250;2022-12-16T03:47:40;47.00;;;30.93;;
8040;SDS011;4063;48.140;10.250;2022-12-16T03:50:06;47.23;;;31.10;;
8040;SDS011;4063;48.140;10.250;2022-12-16T03:52:33;52.87;;;33.37;;
8040;SDS011;4063;48.140;10.250;2022-12-16T03:54:59;49.87;;;31.93;;
8040;SDS011;4063;48.140;10.250;2022-12-16T03:57:25;48.60;;;32.07;;
8040;SDS011;4063;48.140;10.250;2022-12-16T03:59:51;53.37;;;35.20;;
8040;SDS011;4063;48.140;10.250;2022-12-16T04:02:17;49.47;;;31.90;;
8040;SDS011;4063;48.140;10.250;2022-12-16T04:04:43;47.93;;;31.43;;
8040;SDS011;4063;48.140;10.250;2022-12-16T04:07:09;51.43;;;31.87;;
8040;SDS011;4063;48.140;10.250;2022-12-16T04:09:44;48.37;;;31.37;;
8040;SDS011;4063;48.140;10.250;2022-12-16T04:12:10;47.47;;;32.67;;
8040;SDS011;4063;48.140;10.250;2022-12-16T04:14:56;44.03;;;29.57;;
8040;SDS011;4063;48.140;10.250;2022-12-16T04:17:41;47.57;;;30.93;;
8040;SDS011;4063;48.140;10.250;2022-12-16T04:20:30;45.77;;;29.67;;
8040;SDS011;4063;48.140;10.250;2022-12-16T04:23:15;46.50;;;30.30;;
8040;SDS011;4063;48.140;10.250;2022-12-16T04:26:00;46.00;;;30.23;;
8040;SDS011;4063;48.140;10.250;2022-12-16T04:28:26;44.70;;;30.50;;
8040;SDS011;4063;48.140;10.250;2022-12-16T04:30:52;46.97;;;32.13;;
8040;SDS011;4063;48.140;10.250;2022-12-16T04:33:18;46.17;;;30.90;;
8040;SDS011;4063;48.140;10.250;2022-12-16T04:36:04;47.73;;;29.57;;
8040;SDS011;4063;48.140;10.250;2022-12-16T04:38:48;42.00;;;30.47;;
8040;SDS011;4063;48.140;10.250;2022-12-16T04:41:33;46.57;;;31.00;;
8040;SDS011;4063;48.140;10.250;2022-12-16T04:44:17;41.63;;;30.37;;
8040;SDS011;4063;48.140;10.250;2022-12-16T04:47:02;42.53;;;29.13;;
8040;SDS011;4063;48.140;10.250;2022-12-16T04:49:46;44.63;;;30.20;;
8040;SDS011;4063;48.140;10.250;2022-12-16T04:52:31;43.00;;;29.27;;
8040;SDS011;4063;48.140;10.250;2022-12-16T04:55:16;43.10;;;28.37;;
8040;SDS011;4063;48.140;10.250;2022-12-16T04:58:00;46.80;;;28.93;;
8040;SDS011;4063;48.140;10.250;2022-12-16T05:00:46;41.00;;;28.10;;
8040;SDS011;4063;48.140;10.250;2022-12-16T05:03:31;38.67;;;28.67;;
8040;SDS011;4063;48.140;10.250;2022-12-16T05:06:16;40.90;;;29.20;;
8040;SDS011;4063;48.140;10.250;2022-12-16T05:09:01;41.97;;;29.20;;
8040;SDS011;4063;48.140;10.250;2022-12-16T05:11:46;40.20;;;28.30;;
8040;SDS011;4063;48.140;10.250;2022-12-16T05:14:30;43.30;;;29.40;;
8040;SDS011;4063;48.140;10.250;2022-12-16T05:17:15;43.90;;;29.50;;
8040;SDS011;4063;48.140;10.250;2022-12-16T05:19:59;43.37;;;31.37;;
8040;SDS011;4063;48.140;10.250;2022-12-16T05:22:44;47.13;;;30.10;;
8040;SDS011;4063;48.140;10.250;2022-12-16T05:25:29;44.27;;;29.27;;
8040;SDS011;4063;48.140;10.250;2022-12-16T05:28:24;40.90;;;28.27;;
8040;SDS011;4063;48.140;10.250;2022-12-16T05:31:08;43.53;;;28.47;;
8040;SDS011;4063;48.140;10.250;2022-12-16T05:33:53;45.17;;;30.20;;
8040;SDS011;4063;48.140;10.250;2022-12-16T05:36:37;44.63;;;28.53;;
8040;SDS011;4063;48.140;10.250;2022-12-16T05:39:22;42.20;;;28.90;;
8040;SDS011;4063;48.140;10.250;2022-12-16T05:42:06;49.40;;;30.83;;
8040;SDS011;4063;48.140;10.250;2022-12-16T05:44:51;52.40;;;31.83;;
8040;SDS011;4063;48.140;10.250;2022-12-16T05:47:35;52.67;;;33.67;;
8040;SDS011;4063;48.140;10.250;2022-12-16T05:50:20;48.77;;;30.93;;
8040;SDS011;4063;48.140;10.250;2022-12-16T05:53:05;46.27;;;31.77;;
8040;SDS011;4063;48.140;10.250;2022-12-16T05:55:49;49.73;;;30.57;;
8040;SDS011;4063;48.140;10.250;2022-12-16T05:58:34;48.23;;;30.73;;
8040;SDS011;4063;48.140;10.250;2022-12-16T06:01:18;46.00;;;30.33;;
8040;SDS011;4063;48.140;10.250;2022-12-16T06:04:03;51.43;;;31.40;;
8040;SDS011;4063;48.140;10.250;2022-12-16T06:06:47;53.20;;;30.63;;
8040;SDS011;4063;48.140;10.250;2022-12-16T06:09:32;50.50;;;31.63;;
8040;SDS011;4063;48.140;10.250;2022-12-16T06:12:17;51.83;;;32.03;;
8040;SDS011;4063;48.140;10.250;2022-12-16T06:15:01;53.27;;;31.43;;
8040;SDS011;4063;48.140;10.250;2022-12-16T06:17:46;54.67;;;32.37;;
8040;SDS011;4063;48.140;10.250;2022-12-16T06:20:31;48.17;;;30.17;;
8040;SDS011;4063;48.140;10.250;2022-12-16T06:23:16;51.07;;;32.40;;
8040;SDS011;4063;48.140;10.250;2022-12-16T06:26:01;53.90;;;33.23;;
8040;SDS011;4063;48.140;10.250;2022-12-16T06:28:45;47.70;;;31.77;;
8040;SDS011;4063;48.140;10.250;2022-12-16T06:31:30;60.30;;;34.80;;
8040;SDS011;4063;48.140;10.250;2022-12-16T06:34:14;54.30;;;33.93;;
8040;SDS011;4063;48.140;10.250;2022-12-16T06:37:00;53.67;;;34.37;;
8040;SDS011;4063;48.140;10.250;2022-12-16T06:39:44;52.70;;;32.40;;
8040;SDS011;4063;48.140;10.250;2022-12-16T06:42:29;47.77;;;31.67;;
8040;SDS011;4063;48.140;10.250;2022-12-16T06:45:13;54.90;;;30.77;;
8040;SDS011;4063;48.140;10.250;2022-12-16T06:47:58;49.13;;;31.43;;
8040;SDS011;4063;48.140;10.250;2022-12-16T06:50:43;55.73;;;31.53;;
8040;SDS011;4063;48.140;10.250;2022-12-16T06:53:28;55.67;;;33.13;;
8040;SDS011;4063;48.140;10.250;2022-12-16T06:56:12;54.43;;;35.50;;
8040;SDS011;4063;48.140;10.250;2022-12-16T06:59:04;59.20;;;34.90;;
8040;SDS011;4063;48.140;10.250;2022-12-16T07:01:49;50.83;;;31.90;;
8040;SDS011;4063;48.140;10.250;2022-12-16T07:04:34;51.87;;;31.30;;
8040;SDS011;4063;48.140;10.250;2022-12-16T07:07:18;51.43;;;32.43;;
8040;SDS011;4063;48.140;10.250;2022-12-16T07:10:03;54.60;;;34.13;;
8040;SDS011;4063;48.140;10.250;2022-12-16T07:12:47;53.77;;;33.33;;
8040;SDS011;4063;48.140;10.250;2022-12-16T07:15:32;55.37;;;33.57;;
8040;SDS011;4063;48.140;10.250;2022-12-16T07:18:16;55.07;;;35.43;;
8040;SDS011;4063;48.140;10.250;2022-12-16T07:21:01;53.93;;;33.20;;
8040;SDS011;4063;48.140;10.250;2022-12-16T07:23:46;53.77;;;33.23;;
8040;SDS011;4063;48.140;10.250;2022-12-16T07:26:30;57.77;;;34.60;;
8040;SDS011;4063;48.140;10.250;2022-12-16T07:29:14;57.73;;;35.50;;
8040;SDS011;4063;48.140;10.250;2022-12-16T07:31:59;65.27;;;40.27;;
8040;SDS011;4063;48.140;10.250;2022-12-16T07:34:43;63.93;;;36.57;;
8040;SDS011;4063;48.140;10.250;2022-12-16T07:37:28;55.17;;;34.30;;
8040;SDS011;4063;48.140;10.250;2022-12-16T07:40:12;53.27;;;33.80;;
8040;SDS011;4063;48.140;10.250;2022-12-16T07:42:57;55.77;;;33.90;;
8040;SDS011;4063;48.140;10.250;2022-12-16T07:45:41;64.97;;;38.77;;
8040;SDS011;4063;48.140;10.250;2022-12-16T07:48:26;55.90;;;36.93;;
8040;SDS011;4063;48.140;10.250;2022-12-16T07:51:10;203.50;;;101.43;;
8040;SDS011;4063;48.140;10.250;2022-12-16T07:53:55;98.97;;;68.22;;
8040;SDS011;4063;48.140;10.250;2022-12-16T07:56:39;75.37;;;48.60;;
8040;SDS011;4063;48.140;10.250;2022-12-16T07:59:24;58.67;;;35.03;;
8040;SDS011;4063;48.140;10.250;2022-12-16T08:02:09;51.80;;;33.60;;
8040;SDS011;4063;48.140;10.250;2022-12-16T08:04:54;45.67;;;31.73;;
8040;SDS011;4063;48.140;10.250;2022-12-16T08:07:39;45.37;;;30.00;;
8040;SDS011;4063;48.140;10.250;2022-12-16T08:10:23;46.07;;;29.97;;
8040;SDS011;4063;48.140;10.250;2022-12-16T08:13:07;43.83;;;29.70;;
8040;SDS011;4063;48.140;10.250;2022-12-16T08:15:52;48.00;;;30.63;;
8040;SDS011;4063;48.140;10.250;2022-12-16T08:18:37;47.37;;;30.73;;
8040;SDS011;4063;48.140;10.250;2022-12-16T08:21:21;47.40;;;30.80;;
8040;SDS011;4063;48.140;10.250;2022-12-16T08:24:06;40.13;;;28.27;;
8040;SDS011;4063;48.140;10.250;2022-12-16T08:26:50;44.33;;;28.40;;
8040;SDS011;4063;48.140;10.250;2022-12-16T08:29:35;46.27;;;29.57;;
8040;SDS011;4063;48.140;10.250;2022-12-16T08:32:19;43.63;;;27.63;;
8040;SDS011;4063;48.140;10.250;2022-12-16T08:35:04;43.17;;;28.03;;
8040;SDS011;4063;48.140;10.250;2022-12-16T08:37:49;40.33;;;27.97;;
8040;SDS011;4063;48.140;10.250;2022-12-16T08:40:37;41.70;;;27.27;;
8040;SDS011;4063;48.140;10.250;2022-12-16T08:43:21;38.50;;;27.17;;
8040;SDS011;4063;48.140;10.250;2022-12-16T08:46:06;44.00;;;30.43;;
8040;SDS011;4063;48.140;10.250;2022-12-16T08:48:50;39.33;;;28.70;;
8040;SDS011;4063;48.140;10.250;2022-12-16T08:51:35;38.73;;;27.00;;
8040;SDS011;4063;48.140;10.250;2022-12-16T08:54:19;38.03;;;27.73;;
8040;SDS011;4063;48.140;10.250;2022-12-16T08:57:04;41.23;;;27.10;;
8040;SDS011;4063;48.140;10.250;2022-12-16T08:59:48;44.37;;;28.47;;
8040;SDS011;4063;48.140;10.250;2022-12-16T09:02:33;42.83;;;28.77;;
8040;SDS011;4063;48.140;10.250;2022-12-16T09:05:18;39.23;;;27.57;;
8040;SDS011;4063;48.140;10.250;2022-12-16T09:08:02;44.83;;;28.50;;
8040;SDS011;4063;48.140;10.250;2022-12-16T09:10:47;37.60;;;26.97;;
8040;SDS011;4063;48.140;10.250;2022-12-16T09:13:32;41.27;;;27.27;;
8040;SDS011;4063;48.140;10.250;2022-12-16T09:16:16;42.97;;;28.40;;
8040;SDS011;4063;48.140;10.250;2022-12-16T09:19:01;40.63;;;27.47;;
8040;SDS011;4063;48.140;10.250;2022-12-16T09:21:45;43.80;;;28.07;;
8040;SDS011;4063;48.140;10.250;2022-12-16T09:24:30;39.03;;;28.27;;
8040;SDS011;4063;48.140;10.250;2022-12-16T09:27:14;38.77;;;28.73;;
8040;SDS011;4063;48.140;10.250;2022-12-16T09:30:19;34.60;;;25.27;;
8040;SDS011;4063;48.140;10.250;2022-12-16T09:33:03;35.07;;;24.93;;
8040;SDS011;4063;48.140;10.250;2022-12-16T09:35:48;30.70;;;23.20;;
8040;SDS011;4063;48.140;10.250;2022-12-16T09:38:32;33.90;;;25.03;;
8040;SDS011;4063;48.140;10.250;2022-12-16T09:44:29;37.60;;;27.00;;
8040;SDS011;4063;48.140;10.250;2022-12-16T09:47:39;36.17;;;27.00;;
8040;SDS011;4063;48.140;10.250;2022-12-16T09:50:25;37.13;;;25.87;;
8040;SDS011;4063;48.140;10.250;2022-12-16T09:53:12;35.07;;;25.57;;
8040;SDS011;4063;48.140;10.250;2022-12-16T09:55:57;32.53;;;24.97;;
8040;SDS011;4063;48.140;10.250;2022-12-16T09:58:44;31.57;;;23.23;;
8040;SDS011;4063;48.140;10.250;2022-12-16T10:01:31;34.27;;;24.00;;
8040;SDS011;4063;48.140;10.250;2022-12-16T10:04:17;33.73;;;25.37;;
8040;SDS011;4063;48.140;10.250;2022-12-16T10:07:02;32.23;;;24.33;;
8040;SDS011;4063;48.140;10.250;2022-12-16T10:10:10;32.43;;;24.57;;
8040;SDS011;4063;48.140;10.250;2022-12-16T10:16:06;33.77;;;24.83;;
8040;SDS011;4063;48.140;10.250;2022-12-16T10:25:14;32.20;;;23.40;;
8040;SDS011;4063;48.140;10.250;2022-12-16T10:28:14;31.97;;;23.67;;
8040;SDS011;4063;48.140;10.250;2022-12-16T10:31:00;29.27;;;20.43;;
8040;SDS011;4063;48.140;10.250;2022-12-16T10:33:46;32.57;;;22.73;;
8040;SDS011;4063;48.140;10.250;2022-12-16T10:36:32;40.97;;;23.70;;
8040;SDS011;4063;48.140;10.250;2022-12-16T10:42:54;30.67;;;23.13;;
8040;SDS011;4063;48.140;10.250;2022-12-16T10:45:21;33.03;;;24.23;;
8040;SDS011;4063;48.140;10.250;2022-12-16T10:48:08;30.87;;;23.13;;
8040;SDS011;4063;48.140;10.250;2022-12-16T10:50:53;33.57;;;22.47;;
8040;SDS011;4063;48.140;10.250;2022-12-16T10:53:38;30.40;;;22.47;;
8040;SDS011;4063;48.140;10.250;2022-12-16T10:59:35;33.73;;;21.90;;
8040;SDS011;4063;48.140;10.250;2022-12-16T11:02:22;31.63;;;23.80;;
8040;SDS011;4063;48.140;10.250;2022-12-16T11:05:21;30.30;;;22.07;;
8040;SDS011;4063;48.140;10.250;2022-12-16T11:11:14;29.57;;;21.67;;
8040;SDS011;4063;48.140;10.250;2022-12-16T11:14:14;33.27;;;23.57;;
8040;SDS011;4063;48.140;10.250;2022-12-16T11:23:05;32.93;;;23.10;;
8040;SDS011;4063;48.140;10.250;2022-12-16T11:26:02;31.43;;;23.13;;
8040;SDS011;4063;48.140;10.250;2022-12-16T11:31:53;33.73;;;23.27;;
8040;SDS011;4063;48.140;10.250;2022-12-16T11:34:39;33.37;;;23.17;;
8040;SDS011;4063;48.140;10.250;2022-12-16T11:37:25;32.40;;;23.13;;
8040;SDS011;4063;48.140;10.250;2022-12-16T11:40:14;37.10;;;25.07;;
8040;SDS011;4063;48.140;10.250;2022-12-16T11:43:00;34.17;;;24.70;;
8040;SDS011;4063;48.140;10.250;2022-12-16T11:45:46;34.27;;;24.63;;
8040;SDS011;4063;48.140;10.250;2022-12-16T11:48:37;34.93;;;23.43;;
8040;SDS011;4063;48.140;10.250;2022-12-16T11:51:22;31.83;;;22.90;;
8040;SDS011;4063;48.140;10.250;2022-12-16T11:54:20;41.10;;;26.20;;
8040;SDS011;4063;48.140;10.250;2022-12-16T11:57:13;30.63;;;24.03;;
8040;SDS011;4063;48.140;10.250;2022-12-16T12:00:00;34.40;;;23.50;;
8040;SDS011;4063;48.140;10.250;2022-12-16T12:02:51;33.30;;;22.97;;
8040;SDS011;4063;48.140;10.250;2022-12-16T12:05:42;33.50;;;24.30;;
8040;SDS011;4063;48.140;10.250;2022-12-16T12:11:18;33.17;;;24.23;;
8040;SDS011;4063;48.140;10.250;2022-12-16T12:17:17;33.77;;;23.97;;
8040;SDS011;4063;48.140;10.250;2022-12-16T12:22:48;31.43;;;23.67;;
8040;SDS011;4063;48.140;10.250;2022-12-16T12:25:36;31.80;;;24.00;;
8040;SDS011;4063;48.140;10.250;2022-12-16T12:34:08;29.37;;;21.93;;
8040;SDS011;4063;48.140;10.250;2022-12-16T12:40:03;29.63;;;23.13;;
8040;SDS011;4063;48.140;10.250;2022-12-16T12:43:34;31.27;;;24.57;;
8040;SDS011;4063;48.140;10.250;2022-12-16T12:49:27;30.73;;;24.20;;
8040;SDS011;4063;48.140;10.250;2022-12-16T12:52:19;32.73;;;24.13;;
8040;SDS011;4063;48.140;10.250;2022-12-16T12:55:16;32.77;;;24.63;;
8040;SDS011;4063;48.140;10.250;2022-12-16T12:58:03;32.70;;;22.83;;
8040;SDS011;4063;48.140;10.250;2022-12-16T13:00:49;35.47;;;25.87;;
8040;SDS011;4063;48.140;10.250;2022-12-16T13:06:20;35.73;;;26.93;;
8040;SDS011;4063;48.140;10.250;2022-12-16T13:09:21;34.90;;;25.60;;
8040;SDS011;4063;48.140;10.250;2022-12-16T13:20:45;33.97;;;24.63;;
8040;SDS011;4063;48.140;10.250;2022-12-16T13:23:31;37.17;;;25.40;;
8040;SDS011;4063;48.140;10.250;2022-12-16T13:26:16;37.93;;;25.27;;
8040;SDS011;4063;48.140;10.250;2022-12-16T13:29:12;32.97;;;24.13;;
8040;SDS011;4063;48.140;10.250;2022-12-16T13:31:58;39.90;;;26.40;;
8040;SDS011;4063;48.140;10.250;2022-12-16T13:34:44;36.73;;;25.77;;
8040;SDS011;4063;48.140;10.250;2022-12-16T13:37:32;44.23;;;28.63;;
8040;SDS011;4063;48.140;10.250;2022-12-16T13:40:20;44.13;;;29.30;;
8040;SDS011;4063;48.140;10.250;2022-12-16T13:43:43;33.87;;;24.77;;
8040;SDS011;4063;48.140;10.250;2022-12-16T13:46:15;44.70;;;29.50;;
8040;SDS011;4063;48.140;10.250;2022-12-16T13:49:36;43.80;;;29.77;;
8040;SDS011;4063;48.140;10.250;2022-12-16T13:52:04;48.97;;;27.73;;
8040;SDS011;4063;48.140;10.250;2022-12-16T13:54:59;47.70;;;30.93;;
8040;SDS011;4063;48.140;10.250;2022-12-16T13:57:46;30.23;;;23.40;;
8040;SDS011;4063;48.140;10.250;2022-12-16T14:00:32;33.40;;;24.03;;
8040;SDS011;4063;48.140;10.250;2022-12-16T14:03:32;34.83;;;23.77;;
8040;SDS011;4063;48.140;10.250;2022-12-16T14:06:21;37.50;;;24.10;;
8040;SDS011;4063;48.140;10.250;2022-12-16T14:09:16;35.03;;;24.20;;
8040;SDS011;4063;48.140;10.250;2022-12-16T14:12:04;34.87;;;23.23;;
8040;SDS011;4063;48.140;10.250;2022-12-16T14:14:55;40.40;;;23.33;;
8040;SDS011;4063;48.140;10.250;2022-12-16T14:18:00;36.40;;;24.63;;
8040;SDS011;4063;48.140;10.250;2022-12-16T14:20:53;34.73;;;25.53;;
8040;SDS011;4063;48.140;10.250;2022-12-16T14:23:59;36.23;;;24.63;;
8040;SDS011;4063;48.140;10.250;2022-12-16T14:26:46;39.07;;;25.70;;
8040;SDS011;4063;48.140;10.250;2022-12-16T14:29:31;47.13;;;24.40;;
8040;SDS011;4063;48.140;10.250;2022-12-16T14:35:05;35.07;;;23.97;;
8040;SDS011;4063;48.140;10.250;2022-12-16T14:37:55;39.33;;;25.43;;
8040;SDS011;4063;48.140;10.250;2022-12-16T14:40:39;41.97;;;27.10;;
8040;SDS011;4063;48.140;10.250;2022-12-16T14:43:24;34.90;;;24.40;;
8040;SDS011;4063;48.140;10.250;2022-12-16T14:46:30;34.87;;;24.33;;
8040;SDS011;4063;48.140;10.250;2022-12-16T14:49:16;34.10;;;22.90;;
8040;SDS011;4063;48.140;10.250;2022-12-16T14:52:01;40.67;;;27.57;;
8040;SDS011;4063;48.140;10.250;2022-12-16T14:54:46;39.77;;;26.50;;
8040;SDS011;4063;48.140;10.250;2022-12-16T14:57:31;34.83;;;24.93;;
8040;SDS011;4063;48.140;10.250;2022-12-16T15:00:16;35.67;;;25.07;;
8040;SDS011;4063;48.140;10.250;2022-12-16T15:05:46;36.43;;;25.53;;
8040;SDS011;4063;48.140;10.250;2022-12-16T15:08:32;35.87;;;24.93;;
8040;SDS011;4063;48.140;10.250;2022-12-16T15:11:19;36.10;;;23.83;;
8040;SDS011;4063;48.140;10.250;2022-12-16T15:14:04;33.17;;;23.40;;
8040;SDS011;4063;48.140;10.250;2022-12-16T15:16:49;35.07;;;24.00;;
8040;SDS011;4063;48.140;10.250;2022-12-16T15:19:37;35.70;;;23.03;;
8040;SDS011;4063;48.140;10.250;2022-12-16T15:22:23;31.63;;;22.33;;
8040;SDS011;4063;48.140;10.250;2022-12-16T15:25:16;29.90;;;21.33;;
8040;SDS011;4063;48.140;10.250;2022-12-16T15:28:25;33.37;;;23.17;;
8040;SDS011;4063;48.140;10.250;2022-12-16T15:31:14;34.10;;;22.77;;
8040;SDS011;4063;48.140;10.250;2022-12-16T15:37:02;37.30;;;23.23;;
8040;SDS011;4063;48.140;10.250;2022-12-16T15:39:46;38.27;;;23.50;;
8040;SDS011;4063;48.140;10.250;2022-12-16T15:42:31;38.00;;;24.93;;
8040;SDS011;4063;48.140;10.250;2022-12-16T15:45:18;34.23;;;22.27;;
8040;SDS011;4063;48.140;10.250;2022-12-16T15:48:16;34.43;;;23.07;;
8040;SDS011;4063;48.140;10.250;2022-12-16T15:51:02;37.87;;;25.20;;
8040;SDS011;4063;48.140;10.250;2022-12-16T15:53:46;37.40;;;24.17;;
8040;SDS011;4063;48.140;10.250;2022-12-16T15:56:44;37.87;;;23.83;;
8040;SDS011;4063;48.140;10.250;2022-12-16T15:59:30;34.10;;;23.73;;
8040;SDS011;4063;48.140;10.250;2022-12-16T16:02:19;32.50;;;23.40;;
8040;SDS011;4063;48.140;10.250;2022-12-16T16:05:15;34.67;;;24.37;;
8040;SDS011;4063;48.140;10.250;2022-12-16T16:08:01;33.27;;;22.83;;
8040;SDS011;4063;48.140;10.250;2022-12-16T16:10:46;35.90;;;23.20;;
8040;SDS011;4063;48.140;10.250;2022-12-16T16:13:30;34.37;;;23.60;;
8040;SDS011;4063;48.140;10.250;2022-12-16T16:16:15;35.73;;;24.20;;
8040;SDS011;4063;48.140;10.250;2022-12-16T16:19:00;32.60;;;23.10;;
8040;SDS011;4063;48.140;10.250;2022-12-16T16:21:44;40.97;;;27.03;;
8040;SDS011;4063;48.140;10.250;2022-12-16T16:24:29;37.27;;;25.23;;
8040;SDS011;4063;48.140;10.250;2022-12-16T16:27:14;39.03;;;24.90;;
8040;SDS011;4063;48.140;10.250;2022-12-16T16:29:59;40.03;;;25.47;;
8040;SDS011;4063;48.140;10.250;2022-12-16T16:32:44;40.43;;;25.70;;
8040;SDS011;4063;48.140;10.250;2022-12-16T16:35:32;39.27;;;23.43;;
8040;SDS011;4063;48.140;10.250;2022-12-16T16:38:17;39.33;;;26.60;;
8040;SDS011;4063;48.140;10.250;2022-12-16T16:41:02;39.10;;;25.77;;
8040;SDS011;4063;48.140;10.250;2022-12-16T16:43:46;38.77;;;25.27;;
8040;SDS011;4063;48.140;10.250;2022-12-16T16:46:33;37.43;;;25.10;;
8040;SDS011;4063;48.140;10.250;2022-12-16T16:49:19;37.03;;;24.40;;
8040;SDS011;4063;48.140;10.250;2022-12-16T16:52:07;42.63;;;25.20;;
8040;SDS011;4063;48.140;10.250;2022-12-16T16:54:52;40.00;;;24.03;;
8040;SDS011;4063;48.140;10.250;2022-12-16T16:57:37;41.97;;;26.37;;
8040;SDS011;4063;48.140;10.250;2022-12-16T17:00:21;38.77;;;25.63;;
8040;SDS011;4063;48.140;10.250;2022-12-16T17:03:06;37.27;;;24.83;;
8040;SDS011;4063;48.140;10.250;2022-12-16T17:05:50;42.57;;;25.80;;
8040;SDS011;4063;48.140;10.250;2022-12-16T17:08:35;41.53;;;25.27;;
8040;SDS011;4063;48.140;10.250;2022-12-16T17:11:20;42.47;;;26.97;;
8040;SDS011;4063;48.140;10.250;2022-12-16T17:14:07;46.40;;;27.03;;
8040;SDS011;4063;48.140;10.250;2022-12-16T17:16:53;40.93;;;27.33;;
8040;SDS011;4063;48.140;10.250;2022-12-16T17:19:38;44.83;;;28.17;;
8040;SDS011;4063;48.140;10.250;2022-12-16T17:22:22;40.13;;;26.70;;
8040;SDS011;4063;48.140;10.250;2022-12-16T17:25:07;41.13;;;27.47;;
8040;SDS011;4063;48.140;10.250;2022-12-16T17:27:51;46.13;;;28.37;;
8040;SDS011;4063;48.140;10.250;2022-12-16T17:30:36;44.10;;;27.20;;
8040;SDS011;4063;48.140;10.250;2022-12-16T17:33:20;43.13;;;26.53;;
8040;SDS011;4063;48.140;10.250;2022-12-16T17:36:05;43.73;;;27.67;;
8040;SDS011;4063;48.140;10.250;2022-12-16T17:38:49;40.73;;;25.77;;
8040;SDS011;4063;48.140;10.250;2022-12-16T17:41:34;38.30;;;26.50;;
8040;SDS011;4063;48.140;10.250;2022-12-16T17:44:18;41.63;;;27.73;;